CheckWX is a tool to help pilots better visualize weather data.  It is not intended as a substitute for an official pre-flight weather briefing.

21:02:35 UTC

KFFZ METAR
Falcon Field Airport
Mesa, Arizona, USA
Current

9 mins ago

KFFZ 202054Z 21006G14KT 10SM CLR 32/M05 A2978 RMK AO2 SLP060 T03171050 58016
Observed
Apr-20 @ 20:54 UTC
Wind
  • 210° at 6 KTS
  • Gusting to 14 KTS
Visibility
10 SM
Flight Rules
VFR
Cloud Levels
  • Clear skies
Temperature
32°C / 90°F
Dewpoint
-5°C / 23°F
Humidity
9%
Altimeter
29.78" Hg
Pressure
1008.42 hPa
Previous

1 hour ago

KFFZ 201954Z VRB05G17KT 10SM CLR 31/M07 A2980 RMK AO2 SLP068 T03111072
Observed
Apr-20 @ 19:54 UTC
Wind
  • Variable at 5 KTS
  • Gusting to 17 KTS
Visibility
10 SM
Flight Rules
VFR
Cloud Levels
  • Clear skies
Temperature
31°C / 88°F
Dewpoint
-7°C / 19°F
Humidity
8%
Altimeter
29.8" Hg
Pressure
1009.12 hPa
Previous

2 hours ago

KFFZ 201854Z 21012G18KT 10SM CLR 31/M06 A2982 RMK AO2 SLP073 T03061056
Observed
Apr-20 @ 18:54 UTC
Wind
  • 210° at 12 KTS
  • Gusting to 18 KTS
Visibility
10 SM
Flight Rules
VFR
Cloud Levels
  • Clear skies
Temperature
31°C / 88°F
Dewpoint
-6°C / 21°F
Humidity
9%
Altimeter
29.82" Hg
Pressure
1009.82 hPa